Time;durP1;ratioP1;P1;durP2;ratioP2;P2;SDS_P1;SDS_P2;PMS_P1;PMS_P2;Temp;Humidity;BMP_temperature;BMP_pressure;BME280_temperature;BME280_humidity;BME280_pressure;Samples;Min_cycle;Max_cycle;Signal;HPM_P1;HPM_P2
2021/06/15 00:00:09;;;;;;;9.93;5.45;;;12.00;99.90;;;;;;5093706;28;20042;-85
2021/06/15 00:02:35;;;;;;;8.45;5.65;;;11.90;99.90;;;;;;5093597;28;20027;-85
2021/06/15 00:05:01;;;;;;;8.27;5.68;;;11.90;99.90;;;;;;5093735;28;20016;-84
2021/06/15 00:07:27;;;;;;;10.05;6.20;;;11.90;99.90;;;;;;5093852;28;20068;-86
2021/06/15 00:09:53;;;;;;;7.60;5.20;;;11.90;99.90;;;;;;5093876;28;20051;-85
2021/06/15 00:12:19;;;;;;;9.80;5.43;;;11.80;99.90;;;;;;5093810;28;20433;-88
2021/06/15 00:14:45;;;;;;;6.80;4.95;;;11.90;99.90;;;;;;5093519;28;20028;-85
2021/06/15 00:17:11;;;;;;;7.72;5.25;;;11.90;99.90;;;;;;5093822;28;20050;-88
2021/06/15 00:19:37;;;;;;;9.38;5.57;;;11.90;99.90;;;;;;5093571;28;20489;-85
2021/06/15 00:22:04;;;;;;;9.80;5.70;;;11.90;99.90;;;;;;5093577;28;20024;-86
2021/06/15 00:24:29;;;;;;;7.32;5.43;;;11.90;99.90;;;;;;5094712;28;20202;-84
2021/06/15 00:26:55;;;;;;;9.48;6.00;;;11.80;99.90;;;;;;5093158;28;20125;-88
2021/06/15 00:29:20;;;;;;;11.32;5.95;;;11.80;99.90;;;;;;5093612;28;20463;-84
2021/06/15 00:31:46;;;;;;;9.95;5.80;;;11.70;99.90;;;;;;5093362;28;20028;-85
2021/06/15 00:34:12;;;;;;;9.85;5.40;;;11.60;99.90;;;;;;5094415;28;20036;-87
2021/06/15 00:36:38;;;;;;;8.70;5.40;;;11.50;99.90;;;;;;5093264;28;20031;-86
2021/06/15 00:39:04;;;;;;;9.32;5.80;;;11.50;99.90;;;;;;5093079;28;20032;-85
2021/06/15 00:41:29;;;;;;;7.53;5.80;;;11.50;99.90;;;;;;5093300;28;20145;-87
2021/06/15 00:43:55;;;;;;;9.88;5.82;;;11.50;99.90;;;;;;5093180;28;20028;-86
2021/06/15 00:46:21;;;;;;;8.77;6.00;;;11.50;99.90;;;;;;5093227;28;20030;-87
2021/06/15 00:48:46;;;;;;;8.27;5.53;;;11.50;99.90;;;;;;5093402;28;20032;-87
2021/06/15 00:51:14;;;;;;;9.65;6.20;;;11.50;99.90;;;;;;5093121;28;20020;-86
2021/06/15 00:53:39;;;;;;;5.97;5.28;;;11.50;99.90;;;;;;5093107;28;20032;-86
2021/06/15 00:56:06;;;;;;;8.20;4.90;;;11.50;99.90;;;;;;5093252;28;20491;-89
2021/06/15 00:58:31;;;;;;;7.38;5.53;;;11.50;99.90;;;;;;5092859;28;20053;-86
2021/06/15 01:00:57;;;;;;;10.25;5.28;;;11.40;99.90;;;;;;5092949;28;20352;-86
2021/06/15 01:03:24;;;;;;;7.65;5.15;;;11.40;99.90;;;;;;5093320;28;20024;-86
2021/06/15 01:05:51;;;;;;;10.38;5.38;;;11.50;99.90;;;;;;5096829;28;20479;-87
2021/06/15 01:08:39;;;;;;;7.88;5.78;;;11.40;99.90;;;;;;5097000;28;20028;-88
2021/06/15 01:11:40;;;;;;;8.60;5.15;;;11.40;99.90;;;;;;5097098;28;20027;-84
2021/06/15 01:14:24;;;;;;;9.38;5.53;;;11.40;99.90;;;;;;5083978;28;20119;-86
2021/06/15 01:16:59;;;;;;;9.38;5.40;;;11.40;99.90;;;;;;5096972;28;20028;-87
2021/06/15 01:19:36;;;;;;;;;;;11.40;99.90;;;;;;5097399;28;20027;-85
2021/06/15 01:22:14;;;;;;;8.55;4.82;;;11.40;99.90;;;;;;5096795;28;19911;-84
2021/06/15 01:25:05;;;;;;;11.18;5.68;;;11.30;99.90;;;;;;5096911;28;20027;-86
2021/06/15 01:27:56;;;;;;;10.20;5.53;;;11.30;99.90;;;;;;5096903;28;20110;-85
2021/06/15 01:30:23;;;;;;;8.45;5.22;;;11.30;99.90;;;;;;5096856;28;20157;-84
2021/06/15 01:32:56;;;;;;;10.90;5.30;;;11.20;99.90;;;;;;5096517;28;20047;-85
2021/06/15 01:35:23;;;;;;;7.75;5.15;;;11.20;99.90;;;;;;5096639;28;20475;-90
2021/06/15 01:37:58;;;;;;;9.27;5.50;;;11.20;99.90;;;;;;5096579;28;20486;-86
2021/06/15 01:40:32;;;;;;;8.50;4.93;;;11.10;99.90;;;;;;5096483;28;20028;-87
2021/06/15 01:43:02;;;;;;;6.50;4.70;;;11.10;99.90;;;;;;5096332;28;20028;-84
2021/06/15 01:45:35;;;;;;;10.55;4.70;;;11.10;99.90;;;;;;5096345;28;20028;-86
2021/06/15 01:48:13;;;;;;;8.07;4.93;;;11.00;99.90;;;;;;5096156;28;20021;-87
2021/06/15 01:50:42;;;;;;;7.63;4.90;;;10.90;99.90;;;;;;5096251;28;20074;-85
2021/06/15 01:53:12;;;;;;;5.95;4.30;;;10.90;99.90;;;;;;5096330;28;20104;-86
2021/06/15 01:55:43;;;;;;;9.63;4.85;;;10.80;99.90;;;;;;5096286;28;20020;-86
2021/06/15 01:58:10;;;;;;;7.03;5.05;;;10.80;99.90;;;;;;5096040;28;20073;-88
2021/06/15 02:00:36;;;;;;;9.95;5.25;;;10.80;99.90;;;;;;5095988;28;20020;-85
2021/06/15 02:03:04;;;;;;;7.53;4.90;;;10.80;99.90;;;;;;5096236;28;20050;-83
2021/06/15 02:05:46;;;;;;;9.43;5.05;;;10.80;99.90;;;;;;5096155;28;20046;-86
2021/06/15 02:08:18;;;;;;;9.40;4.97;;;10.80;99.90;;;;;;5096048;28;20356;-87
2021/06/15 02:10:45;;;;;;;7.35;5.00;;;10.80;99.90;;;;;;5096173;28;20554;-85
2021/06/15 02:13:11;;;;;;;7.80;5.28;;;10.70;99.90;;;;;;5096325;28;20055;-85
2021/06/15 02:15:37;;;;;;;8.45;5.43;;;10.60;99.90;;;;;;5094998;28;20017;-87
2021/06/15 02:18:04;;;;;;;10.40;6.00;;;10.70;99.90;;;;;;5095832;28;20123;-87
2021/06/15 02:20:40;;;;;;;8.00;5.20;;;10.70;99.90;;;;;;5095754;28;20482;-86
2021/06/15 02:23:10;;;;;;;7.28;4.78;;;10.70;99.90;;;;;;5095586;28;20028;-85
2021/06/15 02:25:38;;;;;;;6.07;4.80;;;10.70;99.90;;;;;;5095932;28;20028;-87
2021/06/15 02:28:04;;;;;;;6.47;4.15;;;10.70;99.90;;;;;;5095934;28;20494;-87
2021/06/15 02:30:31;;;;;;;7.13;5.10;;;10.70;99.90;;;;;;5095676;28;20077;-85
2021/06/15 02:33:05;;;;;;;7.40;4.97;;;10.60;99.90;;;;;;5096644;28;20054;-84
2021/06/15 02:35:31;;;;;;;9.00;5.68;;;10.50;99.90;;;;;;5095270;28;20028;-85
2021/06/15 02:38:11;;;;;;;6.72;5.18;;;10.40;99.90;;;;;;5095458;28;20020;-86
2021/06/15 02:40:38;;;;;;;11.48;5.45;;;10.50;99.90;;;;;;5096607;28;20069;-85
2021/06/15 02:43:05;;;;;;;8.63;5.10;;;10.50;99.90;;;;;;5095386;28;20371;-86
2021/06/15 02:45:33;;;;;;;9.93;6.03;;;10.50;99.90;;;;;;5095612;28;20024;-85
2021/06/15 02:48:03;;;;;;;6.25;5.25;;;10.40;99.90;;;;;;5095373;28;20024;-85
2021/06/15 02:50:30;;;;;;;12.10;6.68;;;10.40;99.90;;;;;;5094983;28;20080;-87
2021/06/15 02:53:05;;;;;;;8.75;6.15;;;10.40;99.90;;;;;;5095227;28;20028;-87
2021/06/15 02:55:39;;;;;;;8.45;5.65;;;10.40;99.90;;;;;;5095500;28;20040;-85
2021/06/15 02:58:05;;;;;;;10.75;5.65;;;10.40;99.90;;;;;;5095150;28;20082;-85
2021/06/15 03:00:31;;;;;;;9.00;5.45;;;10.40;99.90;;;;;;5094950;28;20026;-84
2021/06/15 03:02:58;;;;;;;9.40;6.60;;;10.30;99.90;;;;;;5094934;28;20028;-84
2021/06/15 03:05:24;;;;;;;9.07;6.03;;;10.40;99.90;;;;;;5094662;28;20078;-84
2021/06/15 03:07:51;;;;;;;8.55;5.45;;;10.30;99.90;;;;;;5095184;28;20020;-86
2021/06/15 03:10:18;;;;;;;9.25;5.43;;;10.40;99.90;;;;;;5094696;28;20031;-85
2021/06/15 03:13:05;;;;;;;6.88;5.53;;;10.40;99.90;;;;;;5094717;28;20035;-84
2021/06/15 03:15:52;;;;;;;6.78;5.47;;;10.40;99.90;;;;;;5095763;28;20016;-85
2021/06/15 03:18:42;;;;;;;12.27;5.65;;;10.40;99.90;;;;;;5094961;28;20031;-85
2021/06/15 03:21:10;;;;;;;10.32;6.32;;;10.50;99.90;;;;;;5094548;28;20077;-87
2021/06/15 03:23:57;;;;;;;9.77;5.72;;;10.50;99.90;;;;;;5094453;28;20016;-85
2021/06/15 03:26:39;;;;;;;7.18;5.25;;;10.50;99.90;;;;;;5094309;28;20481;-86
2021/06/15 03:29:09;;;;;;;9.05;6.18;;;10.40;99.90;;;;;;5094422;28;20115;-86
2021/06/15 03:31:40;;;;;;;7.75;5.65;;;10.30;99.90;;;;;;5095479;28;20378;-86
2021/06/15 03:34:08;;;;;;;8.00;6.22;;;10.30;99.90;;;;;;5077492;28;20057;-85
2021/06/15 03:36:37;;;;;;;9.90;6.00;;;10.20;99.90;;;;;;5094478;28;20113;-88
2021/06/15 03:39:04;;;;;;;9.48;6.32;;;10.20;99.90;;;;;;5094309;28;20085;-85
2021/06/15 03:41:31;;;;;;;8.32;6.30;;;10.20;99.90;;;;;;5094111;28;20024;-85
2021/06/15 03:44:01;;;;;;;11.63;6.45;;;10.30;99.90;;;;;;5094382;28;20020;-89
2021/06/15 03:46:29;;;;;;;8.07;6.30;;;10.30;99.90;;;;;;5094201;28;20133;-87
2021/06/15 03:48:56;;;;;;;11.18;6.22;;;10.40;99.90;;;;;;5094169;28;20487;-87
2021/06/15 03:51:27;;;;;;;10.10;5.95;;;10.50;99.90;;;;;;5095199;28;20075;-88
2021/06/15 03:54:05;;;;;;;8.82;5.90;;;10.60;99.90;;;;;;5093981;28;20024;-88
2021/06/15 03:56:43;;;;;;;10.43;6.10;;;10.60;99.90;;;;;;5094081;28;20024;-87
2021/06/15 03:59:13;;;;;;;10.38;6.78;;;10.60;99.90;;;;;;5093659;28;20115;-87
2021/06/15 04:01:42;;;;;;;10.88;6.45;;;10.70;99.90;;;;;;5093899;28;20051;-86
2021/06/15 04:04:14;;;;;;;8.50;6.82;;;10.70;99.90;;;;;;5093858;28;20119;-86
2021/06/15 04:06:46;;;;;;;10.63;6.90;;;10.80;99.90;;;;;;5093780;28;20482;-85
2021/06/15 04:09:12;;;;;;;9.00;6.22;;;10.90;99.90;;;;;;5093805;28;20119;-86
2021/06/15 04:11:40;;;;;;;9.32;6.47;;;11.00;99.90;;;;;;5093750;28;20111;-89
2021/06/15 04:14:08;;;;;;;9.40;6.60;;;11.10;99.90;;;;;;5093810;28;20038;-87
2021/06/15 04:16:35;;;;;;;12.45;7.20;;;11.10;99.90;;;;;;5095129;28;20024;-84
2021/06/15 04:19:04;;;;;;;11.68;6.97;;;11.10;99.90;;;;;;5094912;28;20020;-85
2021/06/15 04:21:33;;;;;;;17.00;11.25;;;11.20;99.90;;;;;;5093597;28;20031;-87
2021/06/15 04:24:06;;;;;;;13.70;9.55;;;11.30;99.90;;;;;;5093750;28;20050;-86
2021/06/15 04:26:35;;;;;;;14.93;11.60;;;11.40;99.90;;;;;;5094856;28;20016;-85
2021/06/15 04:29:04;;;;;;;15.02;8.82;;;11.40;99.90;;;;;;5093356;28;20030;-86
2021/06/15 04:31:31;;;;;;;16.13;9.50;;;11.50;99.90;;;;;;5093530;28;20020;-85
2021/06/15 04:33:58;;;;;;;12.07;7.57;;;11.60;99.90;;;;;;5093163;28;20036;-86
2021/06/15 04:36:24;;;;;;;11.68;7.13;;;11.60;99.90;;;;;;5093265;28;20020;-88
2021/06/15 04:39:12;;;;;;;10.50;6.65;;;11.80;99.90;;;;;;5092972;28;20024;-84
2021/06/15 04:41:41;;;;;;;9.45;6.57;;;11.90;99.90;;;;;;5097016;28;20024;-87
2021/06/15 04:44:11;;;;;;;8.57;5.88;;;12.00;99.90;;;;;;5093204;28;20020;-82
2021/06/15 04:46:48;;;;;;;7.75;4.93;;;14.30;99.90;;;;;;5095576;28;20034;-83
2021/06/15 04:49:31;;;;;;;9.32;5.32;;;14.90;99.90;;;;;;5094001;28;20028;-87
2021/06/15 04:52:00;;;;;;;7.53;4.95;;;15.20;99.90;;;;;;5098069;28;20024;-87
2021/06/15 04:54:33;;;;;;;8.65;4.90;;;15.50;99.90;;;;;;5093044;28;20028;-86
2021/06/15 04:57:02;;;;;;;6.63;4.25;;;16.00;99.90;;;;;;5093075;28;20024;-89
2021/06/15 04:59:29;;;;;;;7.70;4.80;;;16.20;99.90;;;;;;5093115;28;20111;-86
2021/06/15 05:01:55;;;;;;;7.45;4.50;;;16.80;98.40;;;;;;5092948;28;20037;-86
2021/06/15 05:04:21;;;;;;;6.78;4.75;;;17.00;97.80;;;;;;5093066;28;20028;-87
2021/06/15 05:06:47;;;;;;;6.00;4.65;;;16.80;97.30;;;;;;5092948;28;20048;-86
2021/06/15 05:09:15;;;;;;;11.38;4.72;;;16.70;98.00;;;;;;5092896;28;20028;-87
2021/06/15 05:11:42;;;;;;;7.43;4.47;;;16.50;98.00;;;;;;5094078;28;20027;-87
2021/06/15 05:14:11;;;;;;;7.88;5.40;;;16.70;97.50;;;;;;5092874;28;20121;-87
2021/06/15 05:16:39;;;;;;;9.43;5.60;;;17.10;96.80;;;;;;5092694;28;20390;-86
2021/06/15 05:19:05;;;;;;;8.55;5.50;;;16.90;96.90;;;;;;5092923;28;20029;-84
2021/06/15 05:21:35;;;;;;;6.75;5.20;;;17.00;96.50;;;;;;5092825;28;20024;-86
2021/06/15 05:24:08;;;;;;;7.63;5.30;;;16.70;97.20;;;;;;5092995;28;20025;-85
2021/06/15 05:26:34;;;;;;;9.20;4.80;;;16.60;97.50;;;;;;5092932;28;20128;-87
2021/06/15 05:29:00;;;;;;;8.95;4.65;;;16.70;97.20;;;;;;5092731;28;20047;-86
2021/06/15 05:31:25;;;;;;;8.52;4.53;;;17.50;96.10;;;;;;5092787;28;20077;-86
2021/06/15 05:33:51;;;;;;;6.70;4.13;;;17.30;96.10;;;;;;5092905;28;20032;-88
2021/06/15 05:36:17;;;;;;;6.15;4.25;;;17.40;96.20;;;;;;5092870;28;20025;-87
2021/06/15 05:38:43;;;;;;;6.20;4.30;;;17.70;95.00;;;;;;5092635;28;20063;-88
2021/06/15 05:41:09;;;;;;;5.47;3.65;;;17.70;94.10;;;;;;5092832;28;20020;-87
2021/06/15 05:43:34;;;;;;;12.07;4.90;;;17.90;94.10;;;;;;5092782;28;20035;-87
2021/06/15 05:46:00;;;;;;;12.07;4.38;;;18.20;92.40;;;;;;5092829;28;20021;-88
2021/06/15 05:48:26;;;;;;;7.60;3.60;;;17.80;91.70;;;;;;5092926;28;20031;-88
2021/06/15 05:50:51;;;;;;;6.22;3.92;;;17.50;92.50;;;;;;5095701;28;20027;-87
2021/06/15 05:53:17;;;;;;;5.82;4.32;;;17.50;92.40;;;;;;5097563;28;20039;-86
2021/06/15 05:55:43;;;;;;;8.18;3.90;;;17.40;93.20;;;;;;5096429;28;20017;-87
2021/06/15 05:58:09;;;;;;;5.13;4.15;;;17.80;93.30;;;;;;5096386;28;20047;-87
2021/06/15 06:00:35;;;;;;;6.75;4.18;;;18.10;93.10;;;;;;5096033;28;20111;-88
2021/06/15 06:03:01;;;;;;;8.50;4.15;;;18.20;93.40;;;;;;5095926;28;20487;-86
2021/06/15 06:08:05;;;;;;;6.82;3.60;;;19.10;91.60;;;;;;5096149;28;20126;-86
2021/06/15 06:10:30;;;;;;;5.80;4.15;;;19.10;91.70;;;;;;5095267;28;20020;-87
2021/06/15 06:12:56;;;;;;;5.95;3.95;;;19.10;91.80;;;;;;5096035;28;20032;-86
2021/06/15 06:15:22;;;;;;;7.63;4.15;;;19.30;91.40;;;;;;5095733;28;20016;-84
2021/06/15 06:17:48;;;;;;;9.13;4.18;;;19.20;91.40;;;;;;5095932;28;20489;-84
2021/06/15 06:20:16;;;;;;;5.90;4.10;;;19.30;91.40;;;;;;5095743;28;20543;-85
2021/06/15 06:22:42;;;;;;;9.27;5.00;;;19.10;91.30;;;;;;5095618;28;20501;-86
2021/06/15 06:25:09;;;;;;;8.43;4.65;;;18.90;91.60;;;;;;5095723;28;20021;-84
2021/06/15 06:27:36;;;;;;;6.70;4.20;;;18.80;93.20;;;;;;5095654;28;20020;-84
2021/06/15 06:30:02;;;;;;;7.00;4.20;;;18.80;92.20;;;;;;5095434;28;20020;-85
2021/06/15 06:32:28;;;;;;;7.95;4.38;;;18.80;92.50;;;;;;5095644;28;20508;-85
2021/06/15 06:34:54;;;;;;;7.50;4.00;;;18.90;93.20;;;;;;5096783;28;20040;-85
2021/06/15 06:37:19;;;;;;;10.13;4.35;;;18.90;92.70;;;;;;5096000;28;20108;-83
2021/06/15 06:39:45;;;;;;;6.60;3.70;;;19.20;91.80;;;;;;5095438;28;20059;-84
2021/06/15 06:42:11;;;;;;;7.85;3.95;;;19.30;91.60;;;;;;5095780;28;20031;-86
2021/06/15 06:44:36;;;;;;;7.10;4.13;;;19.50;91.30;;;;;;5097488;28;20028;-87
2021/06/15 06:47:02;;;;;;;6.47;4.47;;;19.50;91.50;;;;;;5094165;28;20028;-87
2021/06/15 06:49:28;;;;;;;8.13;4.05;;;19.60;91.50;;;;;;5094333;28;20016;-85
2021/06/15 06:51:53;;;;;;;7.18;4.10;;;19.70;91.50;;;;;;5094161;28;20038;-86
2021/06/15 06:54:19;;;;;;;9.48;4.25;;;19.80;91.60;;;;;;5094321;28;20479;-84
2021/06/15 06:56:45;;;;;;;10.93;4.32;;;20.00;91.10;;;;;;5094836;28;20024;-85
2021/06/15 06:59:10;;;;;;;6.80;3.83;;;20.20;91.00;;;;;;5095479;28;20111;-84
2021/06/15 07:01:36;;;;;;;8.68;3.80;;;20.30;90.50;;;;;;5093413;28;20020;-84
2021/06/15 07:04:02;;;;;;;4.60;3.80;;;20.50;90.10;;;;;;5094111;28;20066;-85
2021/06/15 07:06:28;;;;;;;6.60;3.47;;;20.60;89.50;;;;;;5093870;28;20076;-84
2021/06/15 07:08:53;;;;;;;6.70;3.85;;;20.70;89.10;;;;;;5093924;28;20055;-83
2021/06/15 07:11:19;;;;;;;5.57;3.85;;;20.90;87.90;;;;;;5094923;28;20019;-84
2021/06/15 07:13:45;;;;;;;7.85;3.97;;;21.10;88.70;;;;;;5094960;28;20038;-82
2021/06/15 07:16:11;;;;;;;7.22;3.60;;;21.30;87.90;;;;;;5095207;28;20034;-82
2021/06/15 07:18:57;;;;;;;7.18;3.50;;;21.50;85.70;;;;;;5148664;27;20457;-81
2021/06/15 07:21:22;;;;;;;7.47;3.92;;;21.50;85.80;;;;;;5124673;28;20424;-84
2021/06/15 07:23:48;;;;;;;6.68;3.55;;;21.60;86.70;;;;;;5131446;27;20439;-83
2021/06/15 07:26:14;;;;;;;8.20;3.72;;;21.70;83.90;;;;;;5131444;28;20486;-84
2021/06/15 07:28:39;;;;;;;7.05;3.75;;;21.80;85.20;;;;;;5133053;27;20019;-80
2021/06/15 07:31:05;;;;;;;8.02;2.75;;;21.90;82.70;;;;;;5131694;27;20084;-80
2021/06/15 07:33:31;;;;;;;5.13;3.75;;;21.80;81.80;;;;;;5131399;27;20481;-81
2021/06/15 07:35:56;;;;;;;7.25;3.15;;;21.90;80.90;;;;;;5131497;27;20432;-80
2021/06/15 07:38:22;;;;;;;7.70;3.28;;;22.00;80.10;;;;;;5131482;27;20049;-81
2021/06/15 07:40:48;;;;;;;9.82;3.28;;;22.30;80.80;;;;;;5131439;27;20023;-82
2021/06/15 07:43:16;;;;;;;5.35;2.83;;;22.50;77.30;;;;;;5131223;27;20406;-81
2021/06/15 07:45:41;;;;;;;7.63;2.75;;;22.70;74.70;;;;;;5131282;28;20026;-80
2021/06/15 07:48:07;;;;;;;5.75;2.90;;;22.90;70.10;;;;;;5130913;27;20114;-82
2021/06/15 07:50:33;;;;;;;5.00;2.92;;;22.90;67.60;;;;;;5132220;28;20051;-81
2021/06/15 07:52:58;;;;;;;10.85;4.47;;;23.10;70.80;;;;;;5131817;27;20029;-80
2021/06/15 07:55:24;;;;;;;4.68;2.58;;;23.40;69.60;;;;;;5130711;27;20030;-82
2021/06/15 07:57:50;;;;;;;7.30;3.10;;;23.30;65.50;;;;;;5130624;27;20035;-80
2021/06/15 08:00:17;;;;;;;5.72;3.22;;;23.50;68.00;;;;;;5130621;27;20019;-79
2021/06/15 08:02:44;;;;;;;5.22;3.00;;;23.20;64.80;;;;;;5130619;28;20024;-82
2021/06/15 08:05:11;;;;;;;6.13;2.58;;;23.50;65.10;;;;;;5130801;27;20378;-82
2021/06/15 08:07:37;;;;;;;5.07;2.55;;;23.70;63.00;;;;;;5130586;27;20027;-81
2021/06/15 08:10:03;;;;;;;8.38;2.95;;;23.60;58.30;;;;;;5130599;27;20031;-80
2021/06/15 08:12:29;;;;;;;6.10;2.92;;;23.40;60.30;;;;;;5130670;28;20050;-79
2021/06/15 08:14:55;;;;;;;6.32;2.70;;;23.60;59.50;;;;;;5130596;28;20024;-80
2021/06/15 08:17:21;;;;;;;10.52;3.17;;;23.50;59.40;;;;;;5130455;27;20050;-82
2021/06/15 08:19:47;;;;;;;7.07;3.17;;;23.70;63.20;;;;;;5130164;27;20106;-80
2021/06/15 08:22:12;;;;;;;4.10;2.55;;;23.80;61.20;;;;;;5130304;27;20069;-80
2021/06/15 08:24:38;;;;;;;5.20;2.63;;;24.00;57.80;;;;;;5130278;28;20110;-80
2021/06/15 08:27:04;;;;;;;8.13;2.92;;;24.00;62.80;;;;;;5130181;28;20606;-84
2021/06/15 08:29:31;;;;;;;5.03;2.78;;;24.30;63.30;;;;;;5120840;27;20106;-80
2021/06/15 08:31:56;;;;;;;4.68;2.95;;;24.40;59.40;;;;;;5116422;28;20454;-81
2021/06/15 08:34:22;;;;;;;5.43;2.65;;;24.60;61.00;;;;;;5116491;28;20026;-82
2021/06/15 08:36:48;;;;;;;5.03;2.42;;;24.50;58.40;;;;;;5116371;28;20036;-81
2021/06/15 08:39:13;;;;;;;5.75;2.58;;;24.50;60.80;;;;;;5116293;28;20035;-82
2021/06/15 08:41:40;;;;;;;3.75;2.50;;;24.70;61.80;;;;;;5116065;28;20023;-82
2021/06/15 08:44:07;;;;;;;7.45;3.13;;;24.70;59.20;;;;;;5117334;28;20015;-81
2021/06/15 08:46:33;;;;;;;6.43;3.00;;;24.80;62.40;;;;;;5116096;28;20028;-78
2021/06/15 08:49:03;;;;;;;4.18;2.17;;;24.90;60.00;;;;;;5115273;28;20167;-77
2021/06/15 08:51:29;;;;;;;5.90;3.00;;;25.10;58.40;;;;;;5110001;28;20024;-78
2021/06/15 08:54:04;;;;;;;5.38;2.60;;;24.90;57.50;;;;;;5112500;28;20032;-78
2021/06/15 08:56:33;;;;;;;6.53;2.72;;;25.00;59.60;;;;;;5112416;28;20024;-81
2021/06/15 08:59:07;;;;;;;4.25;2.40;;;25.10;58.70;;;;;;5112358;28;20020;-78
2021/06/15 09:01:33;;;;;;;10.07;2.90;;;25.20;57.80;;;;;;5093896;28;20149;-79
2021/06/15 09:03:59;;;;;;;6.43;2.92;;;25.20;58.10;;;;;;5095131;28;20458;-76
2021/06/15 09:06:24;;;;;;;5.60;3.00;;;25.00;55.80;;;;;;5110889;28;20401;-75
2021/06/15 09:08:55;;;;;;;7.03;2.50;;;25.20;55.30;;;;;;5095452;28;20024;-78
2021/06/15 09:11:22;;;;;;;4.22;2.42;;;25.30;56.30;;;;;;5111215;28;20356;-79
2021/06/15 09:13:48;;;;;;;6.00;2.58;;;25.40;55.70;;;;;;5111196;28;20050;-77
2021/06/15 09:16:44;;;;;;;4.00;2.40;;;25.40;57.80;;;;;;5095659;28;20031;-77
2021/06/15 09:19:18;;;;;;;5.22;2.75;;;25.60;57.00;;;;;;5093603;28;20127;-78
2021/06/15 09:21:46;;;;;;;6.97;2.80;;;25.30;53.60;;;;;;5110041;28;20077;-80
2021/06/15 09:24:23;;;;;;;5.18;2.60;;;25.20;55.40;;;;;;5110879;28;20432;-79
2021/06/15 09:27:02;;;;;;;5.38;2.95;;;25.00;56.30;;;;;;5095052;28;20093;-79
2021/06/15 09:29:35;;;;;;;5.88;2.70;;;24.90;56.70;;;;;;5093602;28;20020;-79
2021/06/15 09:32:00;;;;;;;6.40;2.40;;;25.10;57.70;;;;;;5110349;28;20027;-77
2021/06/15 09:34:26;;;;;;;4.72;2.67;;;25.10;57.10;;;;;;5110023;28;20118;-80
2021/06/15 09:36:55;;;;;;;13.73;3.28;;;25.10;57.00;;;;;;5110243;28;20024;-79
2021/06/15 09:39:21;;;;;;;3.63;2.40;;;25.20;58.30;;;;;;5110553;28;20035;-80
2021/06/15 09:41:48;;;;;;;5.05;2.70;;;25.10;53.20;;;;;;5092608;28;20019;-78
2021/06/15 09:44:24;;;;;;;6.15;2.60;;;25.10;55.20;;;;;;5110164;28;20064;-77
2021/06/15 09:46:56;;;;;;;3.95;2.35;;;25.20;55.30;;;;;;5093546;28;20055;-78
2021/06/15 09:49:46;;;;;;;3.97;2.70;;;25.30;55.80;;;;;;5093110;28;20077;-76
2021/06/15 09:52:27;;;;;;;5.15;2.63;;;25.30;53.90;;;;;;5094487;28;20024;-79
2021/06/15 09:55:05;;;;;;;4.80;2.63;;;25.20;53.60;;;;;;5110006;28;20448;-80
2021/06/15 09:57:34;;;;;;;5.38;2.80;;;24.90;54.20;;;;;;5094498;28;20082;-78
2021/06/15 10:00:05;;;;;;;4.90;2.70;;;25.10;52.50;;;;;;5094034;28;20027;-79
2021/06/15 10:02:32;;;;;;;4.80;2.65;;;25.10;55.00;;;;;;5109604;28;20115;-78
2021/06/15 10:05:17;;;;;;;6.35;2.60;;;25.30;55.70;;;;;;5109563;28;20024;-79
2021/06/15 10:07:43;;;;;;;;;;;25.40;54.20;;;;;;5093157;28;20031;-79
2021/06/15 10:10:09;;;;;;;5.20;2.50;;;25.60;52.30;;;;;;5092496;28;19904;-78
2021/06/15 10:12:35;;;;;;;5.20;2.67;;;25.50;53.50;;;;;;5110435;28;20032;-78
2021/06/15 10:15:01;;;;;;;9.15;2.58;;;25.70;53.00;;;;;;5111183;28;20085;-82
2021/06/15 10:17:28;;;;;;;5.65;2.30;;;25.70;53.00;;;;;;5110597;28;20441;-80
2021/06/15 10:19:55;;;;;;;6.47;2.70;;;25.60;51.80;;;;;;5110667;28;20049;-78
2021/06/15 10:22:21;;;;;;;5.20;2.80;;;25.60;54.90;;;;;;5110972;28;20161;-80
2021/06/15 10:24:49;;;;;;;4.05;3.00;;;25.50;54.10;;;;;;5110844;28;20031;-78
2021/06/15 10:27:15;;;;;;;6.30;2.58;;;25.90;55.50;;;;;;5110687;28;20020;-78
2021/06/15 10:29:47;;;;;;;10.80;3.00;;;26.30;54.60;;;;;;5110910;28;20571;-79
2021/06/15 10:32:24;;;;;;;6.30;2.40;;;26.30;53.30;;;;;;5110862;28;20024;-80
2021/06/15 10:35:01;;;;;;;8.55;2.40;;;26.40;51.90;;;;;;5110646;28;20024;-81
2021/06/15 10:37:34;;;;;;;8.52;2.42;;;26.40;53.60;;;;;;5110626;28;20172;-82
2021/06/15 10:40:03;;;;;;;6.80;2.70;;;26.30;52.40;;;;;;5093753;28;20093;-81
2021/06/15 10:42:29;;;;;;;4.22;2.38;;;26.40;53.60;;;;;;5110566;28;20028;-79
2021/06/15 10:45:16;;;;;;;4.10;2.35;;;26.20;50.70;;;;;;5110533;28;20052;-81
2021/06/15 10:48:05;;;;;;;3.78;2.35;;;26.20;50.40;;;;;;5093667;28;20027;-82
2021/06/15 10:50:39;;;;;;;8.02;2.67;;;26.20;52.40;;;;;;5093360;28;20035;-81
2021/06/15 10:53:09;;;;;;;7.77;2.37;;;26.20;49.90;;;;;;5110310;28;20023;-81
2021/06/15 10:55:45;;;;;;;4.97;2.50;;;25.90;49.10;;;;;;5110405;28;20107;-82
2021/06/15 10:58:12;;;;;;;4.00;2.40;;;26.00;51.70;;;;;;5093009;28;20472;-81
2021/06/15 11:00:47;;;;;;;4.43;2.30;;;26.10;50.50;;;;;;5110415;28;20414;-79
2021/06/15 11:03:16;;;;;;;6.72;2.58;;;25.90;48.60;;;;;;5110831;28;20020;-79
2021/06/15 11:05:44;;;;;;;4.28;2.10;;;25.80;50.00;;;;;;5093982;28;20058;-80
2021/06/15 11:08:17;;;;;;;3.95;2.22;;;25.80;49.30;;;;;;5110602;28;20027;-80
2021/06/15 11:10:50;;;;;;;5.18;2.33;;;25.90;48.50;;;;;;5109978;28;20028;-80
2021/06/15 11:13:16;;;;;;;4.68;2.28;;;26.10;49.60;;;;;;5094585;28;20020;-79
2021/06/15 11:15:59;;;;;;;4.75;2.13;;;26.40;49.10;;;;;;5110237;28;20031;-80
2021/06/15 11:18:25;;;;;;;4.50;2.40;;;26.60;48.10;;;;;;5109946;28;20463;-81
2021/06/15 11:20:50;;;;;;;4.05;2.20;;;26.40;47.40;;;;;;5110058;28;20792;-80
2021/06/15 11:23:18;;;;;;;4.72;2.70;;;26.40;48.40;;;;;;5109974;28;20020;-81
2021/06/15 11:25:59;;;;;;;5.93;2.50;;;26.40;48.70;;;;;;5110066;28;20081;-80
2021/06/15 11:28:45;;;;;;;7.72;2.42;;;26.70;48.20;;;;;;5093073;28;20020;-80
2021/06/15 11:31:17;;;;;;;3.42;2.10;;;26.80;47.80;;;;;;5110132;28;20513;-81
2021/06/15 11:34:01;;;;;;;5.45;1.92;;;26.90;48.20;;;;;;5093321;28;20451;-81
2021/06/15 11:36:46;;;;;;;4.13;2.40;;;26.90;47.20;;;;;;5093041;28;20024;-80
2021/06/15 11:39:30;;;;;;;8.55;2.40;;;26.80;46.40;;;;;;5093235;28;20036;-81
2021/06/15 11:42:08;;;;;;;5.22;1.85;;;26.90;46.60;;;;;;5092945;28;20031;-81
2021/06/15 11:45:02;;;;;;;4.38;2.10;;;26.90;46.10;;;;;;5093131;28;20059;-81
2021/06/15 11:47:38;;;;;;;3.92;2.20;;;27.10;48.30;;;;;;5093155;28;20028;-80
2021/06/15 11:50:15;;;;;;;4.65;2.22;;;27.10;48.00;;;;;;5109640;28;20031;-80
2021/06/15 11:52:51;;;;;;;4.70;2.00;;;27.10;48.00;;;;;;5092931;28;20078;-81
2021/06/15 11:55:18;;;;;;;5.80;2.30;;;27.20;48.90;;;;;;5092879;28;20024;-81
2021/06/15 11:57:44;;;;;;;4.50;2.13;;;27.20;47.20;;;;;;5110013;28;20089;-80
2021/06/15 12:00:14;;;;;;;4.97;2.30;;;27.50;49.80;;;;;;5092624;28;20502;-82
2021/06/15 12:02:40;;;;;;;5.55;2.00;;;27.80;49.90;;;;;;5109865;28;20031;-81
2021/06/15 12:05:05;;;;;;;4.13;2.30;;;28.00;48.70;;;;;;5095521;28;20036;-79
2021/06/15 12:07:31;;;;;;;3.92;2.13;;;28.30;48.00;;;;;;5096530;28;20021;-80
2021/06/15 12:10:14;;;;;;;4.60;2.40;;;28.40;49.40;;;;;;5113517;28;20028;-81
2021/06/15 12:13:08;;;;;;;3.65;2.15;;;28.20;46.50;;;;;;5113596;28;20024;-81
2021/06/15 12:15:34;;;;;;;4.28;2.70;;;28.20;48.00;;;;;;5093804;28;20104;-80
2021/06/15 12:18:01;;;;;;;2.78;2.08;;;28.40;48.70;;;;;;5096364;28;20048;-80
2021/06/15 12:20:29;;;;;;;6.10;2.58;;;28.40;46.80;;;;;;5113209;28;20109;-81
2021/06/15 12:22:55;;;;;;;3.13;2.20;;;28.00;45.00;;;;;;5113148;28;20032;-81
2021/06/15 12:25:30;;;;;;;4.43;2.17;;;28.00;47.50;;;;;;5112874;28;20020;-80
2021/06/15 12:28:28;;;;;;;2.75;2.10;;;28.10;48.10;;;;;;5113111;28;20031;-81
2021/06/15 12:31:10;;;;;;;4.20;2.13;;;28.30;48.50;;;;;;5052048;28;20123;-77
2021/06/15 12:33:39;;;;;;;4.35;2.10;;;28.20;49.00;;;;;;5112764;28;20176;-78
2021/06/15 12:36:09;;;;;;;5.50;2.53;;;28.10;46.80;;;;;;5112837;28;20152;-81
2021/06/15 12:38:35;;;;;;;6.60;2.40;;;28.00;48.70;;;;;;5112147;28;20402;-76
2021/06/15 12:41:13;;;;;;;3.85;2.35;;;28.00;48.40;;;;;;5096606;28;20042;-77
2021/06/15 12:43:38;;;;;;;4.32;1.92;;;27.80;47.00;;;;;;5112320;28;20085;-77
2021/06/15 12:46:06;;;;;;;4.75;2.55;;;27.80;46.70;;;;;;5112159;28;20024;-77
2021/06/15 12:48:32;;;;;;;3.90;2.28;;;27.60;46.90;;;;;;5112069;28;20024;-77
2021/06/15 12:51:04;;;;;;;6.38;2.72;;;27.20;48.00;;;;;;5112201;28;20046;-77
2021/06/15 12:53:32;;;;;;;5.07;2.28;;;27.40;48.50;;;;;;5112266;28;20052;-77
2021/06/15 12:55:58;;;;;;;7.55;2.70;;;27.60;48.20;;;;;;5111882;28;20111;-76
2021/06/15 12:58:28;;;;;;;4.55;2.50;;;27.50;48.80;;;;;;5111575;28;20131;-77
2021/06/15 13:00:54;;;;;;;5.03;2.40;;;27.70;48.90;;;;;;5111734;28;20078;-77